F\v Tenia — FPMH — position and weather

sailwx.info

Track history (hours):
 
Tides and Currents Weather Stations Pressure Air Temp Water Temp Dewpoint Dewpoint Depression Visibility Wind Speed Wind Dir Waves Ship Positions

F\v Tenia

Last reported at 2014-Sep-28 15:34 UTC. Time now 2014-Oct-01 06:08 UTC.
Position N 47°40' W 003°22'.

Length 22 m; draft 4 m.

Type: Fishing. MMSI: 227575000.

Date/timePositionNaut miles runAvg speedWind from/ knotsBaromVisibWave heightAir tempDewpointWater temp
2014-Sep-28 15:34N 47°40' W 003°22'4 3.6
2014-Sep-28 14:33N 47°44' W 003°22'0 0.1
2014-Sep-28 13:33N 47°44' W 003°22'0 0.1
2014-Sep-28 12:34N 47°44' W 003°22'0 0.0
2014-Sep-28 11:34N 47°44' W 003°22'0 0.0
2014-Sep-28 10:33N 47°44' W 003°22'3 2.7
2014-Sep-28 09:34N 47°41' W 003°22'  
2014-Sep-20 18:34N 47°40' W 003°27'5 4.9
2014-Sep-20 17:33N 47°44' W 003°22'0 0.0
2014-Sep-20 16:33N 47°44' W 003°22'0 0.2
2014-Sep-20 15:33N 47°44' W 003°22'0 0.0
2014-Sep-20 14:34N 47°44' W 003°22'0 0.0
2014-Sep-20 13:34N 47°44' W 003°22'0 0.0
2014-Sep-20 12:33N 47°44' W 003°22'0 0.0
2014-Sep-20 11:33N 47°44' W 003°22'6 6.4
2014-Sep-20 10:34N 47°40' W 003°30'74 2.5
2014-Sep-19 05:13N 47°32' W 005°19'0 0.4
2014-Sep-19 04:33N 47°32' W 005°20'1 0.4
2014-Sep-19 01:33N 47°32' W 005°21'1 0.4
2014-Sep-18 23:33N 47°32' W 005°22'  
Track history (hours):
 
Tides and Currents Weather Stations Pressure Air Temp Water Temp Dewpoint Dewpoint Depression Visibility Wind Speed Wind Dir Waves Ship Positions

F\v Tenia

Last reported at 2014-Sep-28 15:34 UTC. Time now 2014-Oct-01 06:08 UTC.
Position N 47°40' W 003°22'.

Length 22 m; draft 4 m.

Type: Fishing. MMSI: 227575000.

Date/timePositionNaut miles runAvg speedWind from/ knotsBaromVisibWave heightAir tempDewpointWater temp
2014-Sep-28 15:34N 47°40' W 003°22'4 3.6
2014-Sep-28 14:33N 47°44' W 003°22'0 0.1
2014-Sep-28 13:33N 47°44' W 003°22'0 0.1
2014-Sep-28 12:34N 47°44' W 003°22'0 0.0
2014-Sep-28 11:34N 47°44' W 003°22'0 0.0
2014-Sep-28 10:33N 47°44' W 003°22'3 2.7
2014-Sep-28 09:34N 47°41' W 003°22'  
2014-Sep-20 18:34N 47°40' W 003°27'5 4.9
2014-Sep-20 17:33N 47°44' W 003°22'0 0.0
2014-Sep-20 16:33N 47°44' W 003°22'0 0.2
2014-Sep-20 15:33N 47°44' W 003°22'0 0.0
2014-Sep-20 14:34N 47°44' W 003°22'0 0.0
2014-Sep-20 13:34N 47°44' W 003°22'0 0.0
2014-Sep-20 12:33N 47°44' W 003°22'0 0.0
2014-Sep-20 11:33N 47°44' W 003°22'6 6.4
2014-Sep-20 10:34N 47°40' W 003°30'74 2.5
2014-Sep-19 05:13N 47°32' W 005°19'0 0.4
2014-Sep-19 04:33N 47°32' W 005°20'1 0.4
2014-Sep-19 01:33N 47°32' W 005°21'1 0.4
2014-Sep-18 23:33N 47°32' W 005°22'  

Dump ship's entire track history